createdAt,value
2023-04-06T00:02:10.664Z,11.07
2023-04-06T00:07:12.777Z,11.18
2023-04-06T00:12:14.752Z,12.25
2023-04-06T00:17:16.539Z,11.48
2023-04-06T00:22:18.362Z,11.35
2023-04-06T00:27:20.590Z,11.00
2023-04-06T00:32:22.519Z,12.15
2023-04-06T00:37:24.429Z,12.20
2023-04-06T00:42:27.177Z,10.63
2023-04-06T00:47:29.651Z,11.75
2023-04-06T00:52:31.529Z,11.02
2023-04-06T00:57:33.332Z,12.43
2023-04-06T01:02:35.220Z,11.93
2023-04-06T01:07:37.023Z,11.18
2023-04-06T01:12:39.849Z,11.15
2023-04-06T01:17:42.440Z,11.48
2023-04-06T01:22:44.382Z,12.52
2023-04-06T01:27:46.636Z,11.50
2023-04-06T01:32:48.671Z,11.93
2023-04-06T01:37:50.519Z,11.75
2023-04-06T01:42:52.321Z,10.88
2023-04-06T01:47:54.255Z,11.18
2023-04-06T01:52:56.079Z,10.52
2023-04-06T01:57:57.947Z,10.55
2023-04-06T02:02:59.886Z,10.00
2023-04-06T02:08:01.702Z,10.57
2023-04-06T02:13:03.611Z,10.18
2023-04-06T02:18:05.708Z,10.20
2023-04-06T02:23:08.054Z,10.35
2023-04-06T02:28:09.891Z,11.38
2023-04-06T02:33:11.652Z,10.85
2023-04-06T02:38:13.405Z,10.32
2023-04-06T02:43:16.469Z,10.48
2023-04-06T02:48:18.234Z,10.20
2023-04-06T02:53:20.025Z,9.10
2023-04-06T02:58:21.857Z,11.23
2023-04-06T03:03:23.910Z,9.85
2023-04-06T03:08:26.050Z,9.95
2023-04-06T03:13:27.841Z,9.10
2023-04-06T03:18:29.621Z,10.52
2023-04-06T03:23:31.421Z,10.15
2023-04-06T03:28:33.354Z,10.95
2023-04-06T03:33:35.282Z,9.98
2023-04-06T03:38:37.987Z,9.88
2023-04-06T03:43:40.955Z,10.20
2023-04-06T03:48:42.779Z,9.77
2023-04-06T03:53:44.571Z,10.02
2023-04-06T03:58:46.620Z,9.82
2023-04-06T04:03:51.462Z,9.45
2023-04-06T04:08:53.798Z,9.80
2023-04-06T04:13:55.754Z,9.93
2023-04-06T04:18:59.242Z,9.75
2023-04-06T04:24:02.317Z,9.48
2023-04-06T04:29:04.123Z,10.18
2023-04-06T04:34:07.790Z,10.95
2023-04-06T04:39:09.923Z,10.00
2023-04-06T04:44:11.879Z,9.70
2023-04-06T04:49:13.736Z,9.93
2023-04-06T04:54:15.667Z,9.95
2023-04-06T04:59:17.700Z,9.52
2023-04-06T05:04:19.899Z,11.50
2023-04-06T05:09:21.815Z,11.23
2023-04-06T05:14:23.734Z,10.85
2023-04-06T05:19:25.731Z,10.15
2023-04-06T05:24:27.574Z,10.27
2023-04-06T05:29:30.194Z,10.38
2023-04-06T05:34:32.418Z,10.13
2023-04-06T05:39:34.349Z,11.20
2023-04-06T05:44:38.331Z,10.70
2023-04-06T05:49:40.191Z,10.43
2023-04-06T05:54:42.155Z,9.45
2023-04-06T05:59:44.058Z,10.52
2023-04-06T06:04:46.011Z,10.18
2023-04-06T06:09:47.818Z,10.30
2023-04-06T06:14:49.682Z,9.77
2023-04-06T06:19:51.517Z,9.82
2023-04-06T06:24:53.301Z,10.50
2023-04-06T06:29:55.112Z,10.52
2023-04-06T06:34:56.942Z,10.07
2023-04-06T06:39:58.755Z,10.18
2023-04-06T06:45:00.837Z,9.45
2023-04-06T06:50:04.182Z,10.57
2023-04-06T06:55:06.317Z,10.65
2023-04-06T07:00:09.685Z,10.80
2023-04-06T07:05:26.079Z,11.18
2023-04-06T07:10:29.116Z,10.98
2023-04-06T07:15:31.359Z,10.45
2023-04-06T07:20:33.312Z,9.93
2023-04-06T07:25:35.299Z,10.68
2023-04-06T07:30:38.862Z,12.88
2023-04-06T07:35:40.967Z,10.20
2023-04-06T07:40:42.967Z,11.20
2023-04-06T07:45:44.947Z,12.27
2023-04-06T07:50:47.006Z,10.90
2023-04-06T07:55:48.893Z,10.48
2023-04-06T08:00:51.079Z,10.63
2023-04-06T08:05:56.257Z,10.52
2023-04-06T08:11:00.686Z,10.65
2023-04-06T08:16:03.956Z,9.75
2023-04-06T08:21:05.919Z,10.20
2023-04-06T08:26:08.016Z,10.27
2023-04-06T08:31:09.924Z,9.80
2023-04-06T08:36:13.976Z,9.90
2023-04-06T08:41:17.680Z,9.57
2023-04-06T08:46:19.914Z,8.57
2023-04-06T08:51:23.967Z,9.10
2023-04-06T08:56:27.555Z,8.68
2023-04-06T09:01:30.631Z,8.52
2023-04-06T09:06:32.873Z,8.68
2023-04-06T09:11:47.413Z,9.38
2023-04-06T09:16:49.250Z,9.43
2023-04-06T09:21:51.322Z,9.10
2023-04-06T09:26:53.167Z,9.75
2023-04-06T09:32:07.247Z,10.50
2023-04-06T09:37:19.407Z,10.35
2023-04-06T09:42:27.385Z,9.80
2023-04-06T09:47:31.321Z,9.27
2023-04-06T09:52:38.328Z,10.68
2023-04-06T09:57:51.442Z,10.23
2023-04-06T10:03:20.920Z,10.25
2023-04-06T10:08:25.434Z,11.55
2023-04-06T10:13:27.764Z,10.70
2023-04-06T10:18:29.954Z,9.45
2023-04-06T10:23:38.311Z,9.25
2023-04-06T10:28:42.991Z,8.77
2023-04-06T10:34:01.691Z,8.50
2023-04-06T10:39:05.973Z,8.55
2023-04-06T10:44:08.259Z,9.57
2023-04-06T10:49:13.805Z,8.05
2023-04-06T10:54:17.836Z,8.43
2023-04-06T10:59:21.941Z,8.55
2023-04-06T11:04:24.541Z,9.07
2023-04-06T11:09:27.800Z,9.45
2023-04-06T11:14:29.585Z,9.30
2023-04-06T11:19:32.936Z,9.55
2023-04-06T11:24:35.159Z,8.43
2023-04-06T11:29:39.039Z,8.23
2023-04-06T11:34:41.990Z,8.55
2023-04-06T11:39:52.015Z,8.73
2023-04-06T11:45:01.398Z,8.23
2023-04-06T11:50:11.536Z,8.85
2023-04-06T11:55:18.812Z,8.55
2023-04-06T12:00:22.117Z,7.90
2023-04-06T12:05:24.905Z,8.57
2023-04-06T12:10:26.750Z,7.03
2023-04-06T12:15:28.600Z,8.32
2023-04-06T12:20:30.846Z,7.63
2023-04-06T12:25:32.680Z,8.55
2023-04-06T12:30:36.659Z,8.75
2023-04-06T12:35:38.522Z,9.10
2023-04-06T12:40:40.853Z,7.15
2023-04-06T12:45:42.831Z,7.90
2023-04-06T12:50:44.598Z,8.35
2023-04-06T12:55:46.606Z,8.13
2023-04-06T13:00:51.830Z,9.15
2023-04-06T13:05:53.717Z,8.32
2023-04-06T13:10:55.865Z,8.82
2023-04-06T13:16:07.212Z,9.55
2023-04-06T13:21:09.183Z,9.20
2023-04-06T13:26:10.989Z,9.60
2023-04-06T13:31:13.048Z,10.52
2023-04-06T13:36:17.814Z,10.27
2023-04-06T13:41:24.329Z,10.15
2023-04-06T13:46:28.868Z,9.77
2023-04-06T13:51:31.799Z,10.13
2023-04-06T13:56:33.579Z,11.45
2023-04-06T14:01:35.549Z,10.20
2023-04-06T14:06:38.273Z,11.05
2023-04-06T14:11:40.069Z,11.13
2023-04-06T14:16:45.095Z,11.48
2023-04-06T14:21:47.027Z,10.13
2023-04-06T14:26:49.002Z,11.38
2023-04-06T14:31:50.761Z,11.60
2023-04-06T14:36:52.594Z,11.25
2023-04-06T14:41:54.366Z,10.43
2023-04-06T14:46:56.794Z,10.90
2023-04-06T14:52:00.177Z,10.80
2023-04-06T14:57:02.922Z,10.77
2023-04-06T15:02:05.041Z,10.10
2023-04-06T15:07:06.888Z,10.25
2023-04-06T15:12:08.749Z,10.73
2023-04-06T15:17:10.560Z,11.23
2023-04-06T15:22:12.471Z,11.45
2023-04-06T15:27:14.282Z,11.27
2023-04-06T15:32:16.195Z,11.60
2023-04-06T15:37:18.043Z,11.68
2023-04-06T15:42:19.787Z,11.32
2023-04-06T15:47:21.942Z,12.95
2023-04-06T15:52:23.962Z,12.38
2023-04-06T15:57:25.901Z,12.70
2023-04-06T16:02:28.322Z,11.65
2023-04-06T16:07:31.936Z,11.80
2023-04-06T16:12:34.063Z,11.32
2023-04-06T16:17:35.990Z,11.63
2023-04-06T16:22:37.999Z,12.23
2023-04-06T16:27:39.764Z,11.35
2023-04-06T16:32:43.222Z,13.02
2023-04-06T16:37:46.798Z,12.25
2023-04-06T16:42:48.560Z,12.57
2023-04-06T16:47:50.783Z,12.38
2023-04-06T16:52:52.606Z,12.85
2023-04-06T16:57:57.632Z,11.65
2023-04-06T17:02:59.597Z,13.13
2023-04-06T17:08:01.583Z,11.52
2023-04-06T17:13:03.603Z,12.40
2023-04-06T17:18:05.613Z,11.85
2023-04-06T17:23:07.418Z,12.88
2023-04-06T17:28:09.280Z,12.98
2023-04-06T17:33:11.097Z,13.70
2023-04-06T17:38:12.904Z,13.02
2023-04-06T17:43:14.848Z,11.63
2023-04-06T17:48:16.998Z,12.80
2023-04-06T17:53:20.620Z,12.98
2023-04-06T17:58:22.656Z,11.85
2023-04-06T18:03:24.574Z,12.23
2023-04-06T18:08:26.401Z,12.20
2023-04-06T18:13:28.215Z,12.93
2023-04-06T18:18:30.012Z,12.52
2023-04-06T18:23:33.140Z,12.57
2023-04-06T18:28:34.940Z,11.10
2023-04-06T18:33:36.686Z,11.82
2023-04-06T18:38:48.085Z,12.57
2023-04-06T18:43:49.992Z,10.23
2023-04-06T18:48:51.901Z,8.98
2023-04-06T18:53:53.741Z,8.38
2023-04-06T18:58:56.259Z,6.80
2023-04-06T19:04:00.005Z,6.97
2023-04-06T19:09:05.037Z,7.65
2023-04-06T19:14:06.959Z,7.70
2023-04-06T19:19:12.870Z,6.55
2023-04-06T19:24:14.747Z,6.80
2023-04-06T19:29:17.411Z,8.07
2023-04-06T19:34:19.387Z,7.60
2023-04-06T19:39:21.167Z,6.57
2023-04-06T19:44:23.277Z,5.72
2023-04-06T19:49:28.302Z,5.25
2023-04-06T19:54:30.254Z,5.07
2023-04-06T19:59:34.477Z,6.50
2023-04-06T20:04:36.574Z,6.20
2023-04-06T20:09:38.571Z,7.00
2023-04-06T20:14:40.434Z,7.35
2023-04-06T20:19:42.202Z,8.00
2023-04-06T20:24:44.246Z,7.45
2023-04-06T20:29:46.189Z,7.47
2023-04-06T20:34:48.892Z,7.90
2023-04-06T20:39:51.373Z,7.68
2023-04-06T20:44:53.765Z,8.20
2023-04-06T20:49:56.078Z,7.65
2023-04-06T20:54:57.909Z,7.43
2023-04-06T20:59:59.763Z,7.53
2023-04-06T21:05:01.574Z,7.32
2023-04-06T21:10:03.909Z,7.22
2023-04-06T21:15:06.403Z,7.57
2023-04-06T21:20:09.520Z,6.60
2023-04-06T21:25:12.710Z,5.65
2023-04-06T21:30:15.076Z,6.63
2023-04-06T21:35:16.924Z,6.85
2023-04-06T21:40:20.871Z,5.75
2023-04-06T21:45:22.609Z,5.47
2023-04-06T21:50:24.437Z,5.70
2023-04-06T21:55:26.277Z,5.03
2023-04-06T22:00:28.024Z,5.22
2023-04-06T22:05:29.995Z,5.45
2023-04-06T22:10:31.978Z,4.95
2023-04-06T22:15:34.204Z,4.93
2023-04-06T22:20:36.027Z,4.75
2023-04-06T22:25:37.845Z,5.07
2023-04-06T22:30:39.743Z,7.15
2023-04-06T22:35:41.634Z,7.78
2023-04-06T22:40:43.417Z,6.70
2023-04-06T22:45:45.182Z,7.60
2023-04-06T22:50:46.957Z,7.22
2023-04-06T22:55:48.685Z,6.88
2023-04-06T23:00:50.534Z,7.78
2023-04-06T23:05:52.382Z,6.95
2023-04-06T23:10:54.139Z,6.18
2023-04-06T23:15:56.027Z,6.95
2023-04-06T23:20:57.801Z,6.22
2023-04-06T23:25:59.596Z,6.28
2023-04-06T23:31:01.455Z,5.60
2023-04-06T23:36:03.386Z,6.05
2023-04-06T23:41:05.602Z,6.43
2023-04-06T23:46:07.549Z,6.38
2023-04-06T23:51:09.409Z,7.30
2023-04-06T23:56:11.175Z,6.40
